Latest Weather Observations for Point Wilson

IDV60901

Issued at 7:41 pm EDT Wednesday 22 February 2017 (issued every 10 minutes, with the page automatically refreshed every 10 minutes)

About weather observations | Map of Melbourne area stations | Latest observations for Melbourne area | Other Formats
Station Details ID: 087166 Name: POINT WILSON Lat: -38.10 Lon: 144.54 Height: 18.0 m
Data from the previous 72 hours. | See also: Recent months for locations in Victoria
Date/Time
EDT
Temp
°C
App
Temp
°C
Dew
Point
°C
Rel
Hum
%
Delta-T
°C
Wind Press
QNH
hPa
Press
MSL
hPa
Rain since
9am
mm
Dir  Spd
km/h
Gust
km/h
Spd
kts
Gust
kts
22/07:30pm - - - - - N 35 44 19 24 - - -
22/07:00pm - - - - - N 35 43 19 23 - - -
22/06:30pm - - - - - N 32 39 17 21 - - -
22/06:00pm - - - - - N 41 61 22 33 - - -
22/05:52pm - - - - - N 39 57 21 31 - - -
22/05:30pm - - - - - N 33 44 18 24 - - -
22/05:00pm - - - - - N 33 44 18 24 - - -
22/04:30pm - - - - - N 35 54 19 29 - - -
22/04:00pm - - - - - NNE 33 39 18 21 - - -
22/03:30pm - - - - - N 35 44 19 24 - - -
22/03:05pm - - - - - NNE 33 54 18 29 - - -
22/03:00pm - - - - - NNE 32 39 17 21 - - -
22/02:30pm - - - - - NNE 37 44 20 24 - - -
22/02:00pm - - - - - N 28 33 15 18 - - -
22/01:30pm - - - - - N 32 37 17 20 - - -
22/01:06pm - - - - - NNE 22 44 12 24 - - -
22/01:00pm - - - - - ENE 19 24 10 13 - - -
22/12:30pm - - - - - ENE 26 33 14 18 - - -
22/12:00pm - - - - - NNE 33 37 18 20 - - -
22/11:30am - - - - - NNE 30 39 16 21 - - -
22/11:27am - - - - - NNE 30 39 16 21 - - -
22/11:00am - - - - - E 15 19 8 10 - - -
22/10:30am - - - - - ENE 19 22 10 12 - - -
22/10:00am - - - - - ENE 20 22 11 12 - - -
22/09:30am - - - - - ENE 15 19 8 10 - - -
22/09:00am - - - - - NE 15 17 8 9 - - -
22/08:30am - - - - - NE 20 24 11 13 - - -
22/08:00am - - - - - NNE 22 24 12 13 - - -
22/07:30am - - - - - NE 26 30 14 16 - - -
22/07:00am - - - - - NE 26 30 14 16 - - -
22/06:30am - - - - - NE 24 26 13 14 - - -
22/06:00am - - - - - NE 17 19 9 10 - - -
22/05:30am - - - - - NNE 19 22 10 12 - - -
22/05:00am - - - - - NNE 19 20 10 11 - - -
22/04:30am - - - - - N 19 19 10 10 - - -
22/04:00am - - - - - NNE 15 17 8 9 - - -
22/03:30am - - - - - NNE 17 19 9 10 - - -
22/03:00am - - - - - NNE 17 19 9 10 - - -
22/02:30am - - - - - N 13 15 7 8 - - -
22/02:00am - - - - - ENE 24 26 13 14 - - -
22/01:30am - - - - - ENE 24 28 13 15 - - -
22/01:00am - - - - - E 26 30 14 16 - - -
22/12:30am - - - - - E 11 15 6 8 - - -
22/12:00am - - - - - E 13 17 7 9 - - -
 
Date/Time
EDT
Temp
°C
App
Temp
°C
Dew
Point
°C
Rel
Hum
%
Delta-T
°C
Wind Press
QNH
hPa
Press
MSL
hPa
Rain since
9am
mm
Dir  Spd
km/h
Gust
km/h
Spd
kts
Gust
kts
21/11:30pm - - - - - ESE 13 17 7 9 - - -
21/11:00pm - - - - - E 19 24 10 13 - - -
21/10:30pm - - - - - E 17 20 9 11 - - -
21/10:00pm - - - - - ESE 17 20 9 11 - - -
21/09:30pm - - - - - ESE 15 19 8 10 - - -
21/09:00pm - - - - - ESE 17 19 9 10 - - -
21/08:30pm - - - - - ESE 17 20 9 11 - - -
21/08:00pm - - - - - SSE 17 22 9 12 - - -
21/07:30pm - - - - - SE 19 20 10 11 - - -
21/07:00pm - - - - - SE 22 24 12 13 - - -
21/06:30pm - - - - - SE 22 26 12 14 - - -
21/06:00pm - - - - - ESE 19 24 10 13 - - -
21/05:30pm - - - - - E 20 24 11 13 - - -
21/05:00pm - - - - - E 26 30 14 16 - - -
21/04:30pm - - - - - E 26 30 14 16 - - -
21/04:00pm - - - - - E 22 26 12 14 - - -
21/03:30pm - - - - - E 22 28 12 15 - - -
21/03:00pm - - - - - E 20 24 11 13 - - -
21/02:30pm - - - - - ENE 19 20 10 11 - - -
21/02:00pm - - - - - E 17 20 9 11 - - -
21/01:30pm - - - - - E 15 19 8 10 - - -
21/01:00pm - - - - - NE 13 15 7 8 - - -
21/12:30pm - - - - - CALM 0 0 0 0 - - -
21/12:00pm - - - - - CALM 0 0 0 0 - - -
21/11:30am - - - - - CALM 0 0 0 0 - - -
21/11:00am - - - - - W 9 15 5 8 - - -
21/10:30am - - - - - W 13 17 7 9 - - -
21/10:00am - - - - - W 17 20 9 11 - - -
21/09:30am - - - - - W 22 24 12 13 - - -
21/09:00am - - - - - W 24 28 13 15 - - -
21/08:30am - - - - - W 22 28 12 15 - - -
21/08:00am - - - - - W 24 28 13 15 - - -
21/07:30am - - - - - W 20 28 11 15 - - -
21/07:00am - - - - - W 19 22 10 12 - - -
21/06:30am - - - - - WNW 19 22 10 12 - - -
21/06:00am - - - - - WNW 19 22 10 12 - - -
21/05:30am - - - - - WNW 20 24 11 13 - - -
21/05:00am - - - - - W 24 28 13 15 - - -
21/04:30am - - - - - W 22 28 12 15 - - -
21/04:00am - - - - - WNW 20 24 11 13 - - -
21/03:30am - - - - - WNW 20 22 11 12 - - -
21/03:00am - - - - - WNW 19 24 10 13 - - -
21/02:30am - - - - - WNW 20 22 11 12 - - -
21/02:00am - - - - - WNW 19 20 10 11 - - -
21/01:30am - - - - - NW 19 20 10 11 - - -
21/01:00am - - - - - WSW 20 24 11 13 - - -
21/12:30am - - - - - WSW 20 24 11 13 - - -
21/12:00am - - - - - WSW 22 26 12 14 - - -
 
Date/Time
EDT
Temp
°C
App
Temp
°C
Dew
Point
°C
Rel
Hum
%
Delta-T
°C
Wind Press
QNH
hPa
Press
MSL
hPa
Rain since
9am
mm
Dir  Spd
km/h
Gust
km/h
Spd
kts
Gust
kts
20/11:30pm - - - - - WSW 26 32 14 17 - - -
20/11:00pm - - - - - WSW 24 28 13 15 - - -
20/10:30pm - - - - - WSW 28 35 15 19 - - -
20/10:00pm - - - - - WSW 33 39 18 21 - - -
20/09:30pm - - - - - SW 26 35 14 19 - - -
20/09:00pm - - - - - SW 28 32 15 17 - - -
20/08:30pm - - - - - SW 32 35 17 19 - - -
20/08:00pm - - - - - SSW 35 41 19 22 - - -
20/07:30pm - - - - - SSW 39 43 21 23 - - -
20/07:00pm - - - - - SSW 35 43 19 23 - - -
20/06:30pm - - - - - SSW 37 41 20 22 - - -
20/06:00pm - - - - - SSW 33 43 18 23 - - -
20/05:30pm - - - - - SSW 41 44 22 24 - - -
20/05:00pm - - - - - SSW 41 50 22 27 - - -
20/04:30pm - - - - - SSW 41 46 22 25 - - -
20/04:00pm - - - - - SSW 41 46 22 25 - - -
20/03:30pm - - - - - SSW 43 50 23 27 - - -
20/03:00pm - - - - - SSW 32 39 17 21 - - -
20/02:30pm - - - - - SSW 30 39 16 21 - - -
20/02:00pm - - - - - SSW 33 46 18 25 - - -
20/01:30pm - - - - - WSW 32 43 17 23 - - -
20/01:00pm - - - - - WSW 35 46 19 25 - - -
20/12:30pm - - - - - WSW 32 41 17 22 - - -
20/12:00pm - - - - - WSW 32 43 17 23 - - -
20/11:30am - - - - - W 33 44 18 24 - - -
20/11:00am - - - - - WSW 33 43 18 23 - - -
20/10:30am - - - - - W 35 46 19 25 - - -
20/10:00am - - - - - W 37 46 20 25 - - -
20/09:30am - - - - - W 37 44 20 24 - - -
20/09:00am - - - - - W 35 41 19 22 - - -
20/08:30am - - - - - W 30 35 16 19 - - -
20/08:00am - - - - - WSW 32 39 17 21 - - -
20/07:30am - - - - - W 37 43 20 23 - - -
20/07:00am - - - - - W 39 46 21 25 - - -
20/06:30am - - - - - W 39 44 21 24 - - -
20/06:00am - - - - - W 35 43 19 23 - - -
20/05:30am - - - - - W 35 44 19 24 - - -
20/05:00am - - - - - WSW 37 46 20 25 - - -
20/04:30am - - - - - WSW 39 46 21 25 - - -
20/04:00am - - - - - W 37 46 20 25 - - -
20/03:30am - - - - - WNW 33 39 18 21 - - -
20/03:00am - - - - - W 43 50 23 27 - - -
20/02:30am - - - - - W 43 48 23 26 - - -
20/02:00am - - - - - W 41 50 22 27 - - -
20/01:30am - - - - - W 41 48 22 26 - - -
20/01:00am - - - - - WNW 30 39 16 21 - - -
20/12:32am - - - - - WNW 30 48 16 26 - - -
20/12:30am - - - - - WNW 32 48 17 26 - - -
20/12:00am - - - - - W 41 52 22 28 - - -
 
Date/Time
EDT
Temp
°C
App
Temp
°C
Dew
Point
°C
Rel
Hum
%
Delta-T
°C
Wind Press
QNH
hPa
Press
MSL
hPa
Rain since
9am
mm
Dir  Spd
km/h
Gust
km/h
Spd
kts
Gust
kts
19/11:30pm - - - - - WNW 33 43 18 23 - - -
19/11:00pm - - - - - W 37 43 20 23 - - -
19/10:30pm - - - - - W 33 44 18 24 - - -
19/10:00pm - - - - - WSW 33 43 18 23 - - -
19/09:30pm - - - - - WSW 30 37 16 20 - - -
19/09:00pm - - - - - WSW 30 37 16 20 - - -
19/08:30pm - - - - - SW 35 44 19 24 - - -
19/08:00pm - - - - - W 24 37 13 20 - - -

Latest Capital City Observations: Canberra | Sydney | Melbourne | Brisbane | Adelaide | Perth | Hobart | Darwin

Other Formats:

Comma delimited format used in spreadsheet applications
http://www.bom.gov.au/fwo/IDV60901/IDV60901.94847.axf

JavaScript Object Notation format (JSON) in row-major order
http://www.bom.gov.au/fwo/IDV60901/IDV60901.94847.json